Details From LEVC - Valencia
To GEML - Melilla
Flight Number -
Tags Standard
Created
Modified
Stats Distance 293 nm / 543 km
Max Altitude 0 ft / 0 m
Waypoints 8
Social Downloads 1
Likes 0
Share VATSIM

Download

Looking for another format? Having issues loading an existing format? Contact us
Advertisement - Login to hide

Notes

None

Route

+39.494_-000.494 LEVC NARGO RESTU SORBA AMR BERUM GEML

ID Type Via Altitude Latitude Longitude Leg Dist Tot Dist Heading (true) Name
O +39.494_-000.494 LATLON - 0 ft / 0 m 39.49433˚ -0.49479˚ - 0 nm - -
LEVC APT - 0 ft / 0 m 39.48900˚ -0.48078˚ 0 nm 0 nm 116° / 116° Valencia
NARGO FIX - 0 ft / 0 m 38.73831˚ -0.99867˚ 51 nm 51 nm 208° / 208° -
RESTU FIX - 0 ft / 0 m 37.90755˚ -1.55757˚ 56 nm 108 nm 208° / 208° -
SORBA FIX - 0 ft / 0 m 37.03570˚ -2.12885˚ 59 nm 167 nm 208° / 207° -
AMR VOR - 0 ft / 0 m 36.83317˚ -2.25942˚ 13 nm 180 nm 207° / 207° ALMERIA VOR-DME
BERUM FIX - 0 ft / 0 m 35.83333˚ -3.23583˚ 76 nm 257 nm 218° / 218° -
O GEML APT - 0 ft / 0 m 35.28037˚ -2.95671˚ 35 nm 293 nm 158° / 158° MELILLA

Altitude Profile

Advertisement - Login to hide

Weather


0- 5 10 15 20 25 30 35+ Temperature / ° C

Clouds and Precipitation
Forecast for 2017-12-13 18:00 UTC. Updated 17 minutes ago

Ground ~20,000 ft ~40,000 ft Winds

LEVC

Details ICAO LEVC (VLC)
Name Valencia
Region Spain
Timezone Europe/Madrid (UTC+1.0)
Stats Elevation 225 ft / 69 m (AMSL)
Location 39.488236° -0.483892°
Runways 2
Magnetic Variation 0.192° E

METAR

LEVC 131330Z 26010KT 230V300 CAVOK 16/M02 Q1023 NOSIG

Decode

TAF

TAF LEVC 131100Z 1312/1412 27012KT CAVOK TX17/1312Z TN07/1407Z PROB30 TEMPO 1315/1321 27015G25KT PROB40 TEMPO 1321/1406 27020G38KT

Decode

Departure Runways

ID Width Length Bearing (true) Bearing (mag) Surface Threshold Offset Overrun Length
12 148 ft / 45 m 10,555 ft / 3,217 m 116.25° 116.06° Asphalt 0 ft / 0 m 646 ft / 197 m
22 154 ft / 47 m 3,828 ft / 1,167 m 217.99° 217.80° Asphalt 0 ft / 0 m 0 ft / 0 m
30 148 ft / 45 m 10,555 ft / 3,217 m 296.27° 296.08° Asphalt 1,001 ft / 305 m 932 ft / 284 m
4 154 ft / 47 m 3,828 ft / 1,167 m 37.98° 37.79° Asphalt 0 ft / 0 m 0 ft / 0 m

GEML

Details ICAO GEML (MLN)
Name MELILLA
Region Ceuta and Melilla
Timezone Africa/Casablanca (UTC+0.0)
Stats Elevation 156 ft / 48 m (AMSL)
Location 35.280374° -2.956708°
Runways 1
Magnetic Variation 0.454° W

METAR

GEML 131330Z 10003KT 050V150 9999 FEW028 16/09 Q1027

Decode

TAF

TAF GEML 130800Z 1309/1409 09006KT CAVOK TX16/1313Z TN06/1405Z

Decode

Destination Runways

ID Width Length Bearing (true) Bearing (mag) Surface Threshold Offset Overrun Length
15 148 ft / 45 m 4,811 ft / 1,466 m 146.39° 146.84° Asphalt 755 ft / 230 m 0 ft / 0 m
33 148 ft / 45 m 4,811 ft / 1,466 m 326.40° 326.85° Asphalt 0 ft / 0 m 0 ft / 0 m